sensor_id;sensor_type;location;lat;lon;timestamp;P1;durP1;ratioP1;P2;durP2;ratioP2
17197;SDS011;8715;51.010;6.812;2023-03-14T00:01:39;731.13;;;698.67;;
17197;SDS011;8715;51.010;6.812;2023-03-14T00:04:05;725.33;;;693.40;;
17197;SDS011;8715;51.010;6.812;2023-03-14T00:06:30;735.17;;;702.70;;
17197;SDS011;8715;51.010;6.812;2023-03-14T00:08:56;732.22;;;699.70;;
17197;SDS011;8715;51.010;6.812;2023-03-14T00:11:21;732.63;;;700.45;;
17197;SDS011;8715;51.010;6.812;2023-03-14T00:13:47;731.03;;;699.07;;
17197;SDS011;8715;51.010;6.812;2023-03-14T00:16:13;740.30;;;707.47;;
17197;SDS011;8715;51.010;6.812;2023-03-14T00:18:38;735.37;;;703.07;;
17197;SDS011;8715;51.010;6.812;2023-03-14T00:21:04;745.47;;;712.58;;
17197;SDS011;8715;51.010;6.812;2023-03-14T00:23:30;730.97;;;698.60;;
17197;SDS011;8715;51.010;6.812;2023-03-14T00:26:03;735.08;;;702.83;;
17197;SDS011;8715;51.010;6.812;2023-03-14T00:28:31;737.20;;;704.97;;
17197;SDS011;8715;51.010;6.812;2023-03-14T00:30:56;737.80;;;705.50;;
17197;SDS011;8715;51.010;6.812;2023-03-14T00:33:22;739.77;;;706.57;;
17197;SDS011;8715;51.010;6.812;2023-03-14T00:35:54;734.22;;;702.20;;
17197;SDS011;8715;51.010;6.812;2023-03-14T00:38:19;744.17;;;710.83;;
17197;SDS011;8715;51.010;6.812;2023-03-14T00:40:44;736.80;;;704.10;;
17197;SDS011;8715;51.010;6.812;2023-03-14T00:43:09;739.33;;;706.47;;
17197;SDS011;8715;51.010;6.812;2023-03-14T00:45:35;745.70;;;712.33;;
17197;SDS011;8715;51.010;6.812;2023-03-14T00:48:00;738.77;;;705.63;;
17197;SDS011;8715;51.010;6.812;2023-03-14T00:50:25;739.17;;;706.23;;
17197;SDS011;8715;51.010;6.812;2023-03-14T00:52:50;737.90;;;705.13;;
17197;SDS011;8715;51.010;6.812;2023-03-14T00:55:15;738.00;;;704.17;;
17197;SDS011;8715;51.010;6.812;2023-03-14T00:57:41;737.57;;;704.40;;
17197;SDS011;8715;51.010;6.812;2023-03-14T01:00:06;733.83;;;700.03;;
17197;SDS011;8715;51.010;6.812;2023-03-14T01:02:35;727.50;;;695.40;;
17197;SDS011;8715;51.010;6.812;2023-03-14T01:05:00;716.63;;;685.93;;
17197;SDS011;8715;51.010;6.812;2023-03-14T01:07:26;718.40;;;685.83;;
17197;SDS011;8715;51.010;6.812;2023-03-14T01:09:51;728.53;;;696.87;;
17197;SDS011;8715;51.010;6.812;2023-03-14T01:12:17;727.60;;;695.38;;
17197;SDS011;8715;51.010;6.812;2023-03-14T01:14:42;719.57;;;687.90;;
17197;SDS011;8715;51.010;6.812;2023-03-14T01:17:07;723.43;;;692.17;;
17197;SDS011;8715;51.010;6.812;2023-03-14T01:19:32;726.50;;;694.93;;
17197;SDS011;8715;51.010;6.812;2023-03-14T01:21:57;719.80;;;688.33;;
17197;SDS011;8715;51.010;6.812;2023-03-14T01:24:23;731.00;;;699.37;;
17197;SDS011;8715;51.010;6.812;2023-03-14T01:26:48;729.70;;;697.43;;
17197;SDS011;8715;51.010;6.812;2023-03-14T01:29:13;729.03;;;696.77;;
17197;SDS011;8715;51.010;6.812;2023-03-14T01:31:38;723.43;;;692.13;;
17197;SDS011;8715;51.010;6.812;2023-03-14T01:34:03;719.97;;;688.73;;
17197;SDS011;8715;51.010;6.812;2023-03-14T01:36:29;724.80;;;693.57;;
17197;SDS011;8715;51.010;6.812;2023-03-14T01:38:54;723.30;;;692.20;;
17197;SDS011;8715;51.010;6.812;2023-03-14T01:41:20;732.73;;;700.40;;
17197;SDS011;8715;51.010;6.812;2023-03-14T01:43:47;760.92;;;727.30;;
17197;SDS011;8715;51.010;6.812;2023-03-14T01:46:14;725.17;;;693.30;;
17197;SDS011;8715;51.010;6.812;2023-03-14T01:51:17;727.38;;;696.13;;
17197;SDS011;8715;51.010;6.812;2023-03-14T01:53:44;727.40;;;696.03;;
17197;SDS011;8715;51.010;6.812;2023-03-14T01:56:10;726.80;;;695.22;;
17197;SDS011;8715;51.010;6.812;2023-03-14T01:58:36;729.20;;;697.72;;
17197;SDS011;8715;51.010;6.812;2023-03-14T02:01:04;721.05;;;689.88;;
17197;SDS011;8715;51.010;6.812;2023-03-14T02:03:30;724.88;;;693.13;;
17197;SDS011;8715;51.010;6.812;2023-03-14T02:05:56;720.08;;;688.13;;
17197;SDS011;8715;51.010;6.812;2023-03-14T02:08:24;720.25;;;689.17;;
17197;SDS011;8715;51.010;6.812;2023-03-14T02:10:51;725.08;;;693.35;;
17197;SDS011;8715;51.010;6.812;2023-03-14T02:13:17;718.03;;;686.47;;
17197;SDS011;8715;51.010;6.812;2023-03-14T02:15:43;723.42;;;692.28;;
17197;SDS011;8715;51.010;6.812;2023-03-14T02:18:09;728.35;;;696.75;;
17197;SDS011;8715;51.010;6.812;2023-03-14T02:23:00;715.63;;;684.90;;
17197;SDS011;8715;51.010;6.812;2023-03-14T02:27:53;718.92;;;687.90;;
17197;SDS011;8715;51.010;6.812;2023-03-14T02:30:23;723.42;;;692.08;;
17197;SDS011;8715;51.010;6.812;2023-03-14T02:35:18;714.63;;;683.38;;
17197;SDS011;8715;51.010;6.812;2023-03-14T02:37:47;717.20;;;686.50;;
17197;SDS011;8715;51.010;6.812;2023-03-14T02:40:13;719.88;;;688.75;;
17197;SDS011;8715;51.010;6.812;2023-03-14T02:42:38;760.50;;;726.40;;
17197;SDS011;8715;51.010;6.812;2023-03-14T02:47:35;727.97;;;695.70;;
17197;SDS011;8715;51.010;6.812;2023-03-14T02:50:05;718.28;;;686.65;;
17197;SDS011;8715;51.010;6.812;2023-03-14T02:52:31;722.97;;;691.88;;
17197;SDS011;8715;51.010;6.812;2023-03-14T02:54:56;728.90;;;696.53;;
17197;SDS011;8715;51.010;6.812;2023-03-14T02:57:21;728.27;;;695.67;;
17197;SDS011;8715;51.010;6.812;2023-03-14T02:59:47;728.67;;;697.30;;
17197;SDS011;8715;51.010;6.812;2023-03-14T03:02:12;726.13;;;694.17;;
17197;SDS011;8715;51.010;6.812;2023-03-14T03:04:37;725.77;;;693.90;;
17197;SDS011;8715;51.010;6.812;2023-03-14T03:07:02;714.27;;;683.93;;
17197;SDS011;8715;51.010;6.812;2023-03-14T03:09:27;721.23;;;690.07;;
17197;SDS011;8715;51.010;6.812;2023-03-14T03:11:53;723.07;;;691.80;;
17197;SDS011;8715;51.010;6.812;2023-03-14T03:14:18;722.20;;;690.85;;
17197;SDS011;8715;51.010;6.812;2023-03-14T03:16:43;724.67;;;692.83;;
17197;SDS011;8715;51.010;6.812;2023-03-14T03:19:08;718.30;;;687.17;;
17197;SDS011;8715;51.010;6.812;2023-03-14T03:21:34;711.47;;;680.50;;
17197;SDS011;8715;51.010;6.812;2023-03-14T03:23:59;721.55;;;690.47;;
17197;SDS011;8715;51.010;6.812;2023-03-14T03:26:25;724.70;;;692.67;;
17197;SDS011;8715;51.010;6.812;2023-03-14T03:28:51;726.70;;;695.08;;
17197;SDS011;8715;51.010;6.812;2023-03-14T03:31:16;720.30;;;688.97;;
17197;SDS011;8715;51.010;6.812;2023-03-14T03:33:41;724.17;;;692.80;;
17197;SDS011;8715;51.010;6.812;2023-03-14T03:36:07;729.53;;;697.53;;
17197;SDS011;8715;51.010;6.812;2023-03-14T03:38:33;719.53;;;688.83;;
17197;SDS011;8715;51.010;6.812;2023-03-14T03:40:58;717.23;;;686.17;;
17197;SDS011;8715;51.010;6.812;2023-03-14T03:43:23;728.10;;;696.00;;
17197;SDS011;8715;51.010;6.812;2023-03-14T03:45:48;723.47;;;691.83;;
17197;SDS011;8715;51.010;6.812;2023-03-14T03:48:13;721.33;;;690.03;;
17197;SDS011;8715;51.010;6.812;2023-03-14T03:50:43;730.00;;;697.67;;
17197;SDS011;8715;51.010;6.812;2023-03-14T03:53:08;727.03;;;695.30;;
17197;SDS011;8715;51.010;6.812;2023-03-14T03:55:34;724.80;;;692.83;;
17197;SDS011;8715;51.010;6.812;2023-03-14T03:57:59;715.47;;;684.80;;
17197;SDS011;8715;51.010;6.812;2023-03-14T04:00:24;718.13;;;686.60;;
17197;SDS011;8715;51.010;6.812;2023-03-14T04:02:49;718.57;;;687.03;;
17197;SDS011;8715;51.010;6.812;2023-03-14T04:05:15;723.53;;;691.37;;
17197;SDS011;8715;51.010;6.812;2023-03-14T04:07:40;723.70;;;691.85;;
17197;SDS011;8715;51.010;6.812;2023-03-14T04:10:05;723.07;;;691.40;;
17197;SDS011;8715;51.010;6.812;2023-03-14T04:12:30;724.63;;;693.03;;
17197;SDS011;8715;51.010;6.812;2023-03-14T04:14:56;724.17;;;692.63;;
17197;SDS011;8715;51.010;6.812;2023-03-14T04:17:21;717.23;;;685.83;;
17197;SDS011;8715;51.010;6.812;2023-03-14T04:19:46;717.03;;;685.93;;
17197;SDS011;8715;51.010;6.812;2023-03-14T04:22:14;724.03;;;692.00;;
17197;SDS011;8715;51.010;6.812;2023-03-14T04:24:39;730.00;;;698.03;;
17197;SDS011;8715;51.010;6.812;2023-03-14T04:27:04;727.00;;;694.93;;
17197;SDS011;8715;51.010;6.812;2023-03-14T04:29:30;730.67;;;698.40;;
17197;SDS011;8715;51.010;6.812;2023-03-14T04:31:55;725.97;;;693.47;;
17197;SDS011;8715;51.010;6.812;2023-03-14T04:34:20;724.10;;;692.13;;
17197;SDS011;8715;51.010;6.812;2023-03-14T04:36:45;723.50;;;691.07;;
17197;SDS011;8715;51.010;6.812;2023-03-14T04:39:10;729.27;;;696.77;;
17197;SDS011;8715;51.010;6.812;2023-03-14T04:41:35;727.70;;;695.80;;
17197;SDS011;8715;51.010;6.812;2023-03-14T04:44:01;726.40;;;694.37;;
17197;SDS011;8715;51.010;6.812;2023-03-14T04:46:26;734.43;;;702.00;;
17197;SDS011;8715;51.010;6.812;2023-03-14T04:48:51;722.20;;;691.00;;
17197;SDS011;8715;51.010;6.812;2023-03-14T04:51:16;723.97;;;692.27;;
17197;SDS011;8715;51.010;6.812;2023-03-14T04:53:42;724.87;;;692.97;;
17197;SDS011;8715;51.010;6.812;2023-03-14T04:56:07;726.60;;;694.33;;
17197;SDS011;8715;51.010;6.812;2023-03-14T04:58:32;718.80;;;687.58;;
17197;SDS011;8715;51.010;6.812;2023-03-14T05:01:04;717.87;;;686.70;;
17197;SDS011;8715;51.010;6.812;2023-03-14T05:03:29;738.10;;;705.45;;
17197;SDS011;8715;51.010;6.812;2023-03-14T05:05:54;723.37;;;691.53;;
17197;SDS011;8715;51.010;6.812;2023-03-14T05:08:20;721.10;;;689.78;;
17197;SDS011;8715;51.010;6.812;2023-03-14T05:10:51;729.20;;;696.57;;
17197;SDS011;8715;51.010;6.812;2023-03-14T05:13:16;722.67;;;690.72;;
17197;SDS011;8715;51.010;6.812;2023-03-14T05:15:41;726.00;;;694.67;;
17197;SDS011;8715;51.010;6.812;2023-03-14T05:18:06;726.50;;;694.30;;
17197;SDS011;8715;51.010;6.812;2023-03-14T05:20:31;731.40;;;699.53;;
17197;SDS011;8715;51.010;6.812;2023-03-14T05:22:57;723.93;;;692.70;;
17197;SDS011;8715;51.010;6.812;2023-03-14T05:25:22;726.07;;;694.33;;
17197;SDS011;8715;51.010;6.812;2023-03-14T05:27:47;732.00;;;700.13;;
17197;SDS011;8715;51.010;6.812;2023-03-14T05:30:12;730.33;;;698.57;;
17197;SDS011;8715;51.010;6.812;2023-03-14T05:32:37;719.37;;;687.43;;
17197;SDS011;8715;51.010;6.812;2023-03-14T05:35:03;723.60;;;691.83;;
17197;SDS011;8715;51.010;6.812;2023-03-14T05:37:28;721.97;;;690.33;;
17197;SDS011;8715;51.010;6.812;2023-03-14T05:39:53;728.50;;;696.90;;
17197;SDS011;8715;51.010;6.812;2023-03-14T05:42:19;728.50;;;696.73;;
17197;SDS011;8715;51.010;6.812;2023-03-14T05:44:44;724.03;;;692.70;;
17197;SDS011;8715;51.010;6.812;2023-03-14T05:47:09;726.80;;;695.47;;
17197;SDS011;8715;51.010;6.812;2023-03-14T05:49:34;725.43;;;694.20;;
17197;SDS011;8715;51.010;6.812;2023-03-14T05:52:00;725.63;;;694.13;;
17197;SDS011;8715;51.010;6.812;2023-03-14T05:54:25;728.47;;;696.87;;
17197;SDS011;8715;51.010;6.812;2023-03-14T05:56:50;728.53;;;696.20;;
17197;SDS011;8715;51.010;6.812;2023-03-14T05:59:15;729.23;;;697.13;;
17197;SDS011;8715;51.010;6.812;2023-03-14T06:01:40;727.73;;;696.30;;
17197;SDS011;8715;51.010;6.812;2023-03-14T06:04:05;718.07;;;686.93;;
17197;SDS011;8715;51.010;6.812;2023-03-14T06:06:31;733.57;;;700.90;;
17197;SDS011;8715;51.010;6.812;2023-03-14T06:08:56;724.23;;;692.83;;
17197;SDS011;8715;51.010;6.812;2023-03-14T06:11:21;725.90;;;694.27;;
17197;SDS011;8715;51.010;6.812;2023-03-14T06:13:46;728.73;;;696.97;;
17197;SDS011;8715;51.010;6.812;2023-03-14T06:16:13;726.25;;;694.85;;
17197;SDS011;8715;51.010;6.812;2023-03-14T06:18:39;734.33;;;702.00;;
17197;SDS011;8715;51.010;6.812;2023-03-14T06:21:04;722.20;;;690.83;;
17197;SDS011;8715;51.010;6.812;2023-03-14T06:23:29;730.33;;;698.13;;
17197;SDS011;8715;51.010;6.812;2023-03-14T06:25:56;723.80;;;692.53;;
17197;SDS011;8715;51.010;6.812;2023-03-14T06:28:21;729.07;;;697.20;;
17197;SDS011;8715;51.010;6.812;2023-03-14T06:30:47;728.40;;;696.30;;
17197;SDS011;8715;51.010;6.812;2023-03-14T06:33:12;727.67;;;695.97;;
17197;SDS011;8715;51.010;6.812;2023-03-14T06:35:37;741.40;;;708.60;;
17197;SDS011;8715;51.010;6.812;2023-03-14T06:38:02;731.03;;;698.50;;
17197;SDS011;8715;51.010;6.812;2023-03-14T06:40:27;721.70;;;690.50;;
17197;SDS011;8715;51.010;6.812;2023-03-14T06:42:53;728.17;;;696.10;;
17197;SDS011;8715;51.010;6.812;2023-03-14T06:45:18;732.40;;;700.10;;
17197;SDS011;8715;51.010;6.812;2023-03-14T06:47:43;734.20;;;701.80;;
17197;SDS011;8715;51.010;6.812;2023-03-14T06:50:09;775.93;;;740.43;;
17197;SDS011;8715;51.010;6.812;2023-03-14T06:52:34;742.33;;;709.13;;
17197;SDS011;8715;51.010;6.812;2023-03-14T06:55:00;744.55;;;710.65;;
17197;SDS011;8715;51.010;6.812;2023-03-14T06:57:25;742.83;;;708.80;;
17197;SDS011;8715;51.010;6.812;2023-03-14T06:59:50;739.50;;;706.47;;
17197;SDS011;8715;51.010;6.812;2023-03-14T07:02:16;771.40;;;736.27;;
17197;SDS011;8715;51.010;6.812;2023-03-14T07:04:41;749.43;;;715.53;;
17197;SDS011;8715;51.010;6.812;2023-03-14T07:07:06;739.73;;;706.80;;
17197;SDS011;8715;51.010;6.812;2023-03-14T07:09:32;752.23;;;718.10;;
17197;SDS011;8715;51.010;6.812;2023-03-14T07:11:57;750.60;;;717.25;;
17197;SDS011;8715;51.010;6.812;2023-03-14T07:14:22;745.47;;;711.93;;
17197;SDS011;8715;51.010;6.812;2023-03-14T07:16:47;750.30;;;715.97;;
17197;SDS011;8715;51.010;6.812;2023-03-14T07:19:13;750.20;;;716.37;;
17197;SDS011;8715;51.010;6.812;2023-03-14T07:21:38;752.87;;;718.73;;
17197;SDS011;8715;51.010;6.812;2023-03-14T07:24:03;753.53;;;719.05;;
17197;SDS011;8715;51.010;6.812;2023-03-14T07:26:28;760.47;;;725.43;;
17197;SDS011;8715;51.010;6.812;2023-03-14T07:28:54;752.30;;;718.30;;
17197;SDS011;8715;51.010;6.812;2023-03-14T07:31:19;766.20;;;730.47;;
17197;SDS011;8715;51.010;6.812;2023-03-14T07:33:44;750.20;;;716.60;;
17197;SDS011;8715;51.010;6.812;2023-03-14T07:36:10;758.53;;;724.10;;
17197;SDS011;8715;51.010;6.812;2023-03-14T07:38:35;754.57;;;720.57;;
17197;SDS011;8715;51.010;6.812;2023-03-14T07:41:01;755.47;;;720.80;;
17197;SDS011;8715;51.010;6.812;2023-03-14T07:43:26;754.60;;;719.70;;
17197;SDS011;8715;51.010;6.812;2023-03-14T07:45:51;748.10;;;714.67;;
17197;SDS011;8715;51.010;6.812;2023-03-14T07:48:16;759.13;;;724.03;;
17197;SDS011;8715;51.010;6.812;2023-03-14T07:50:42;755.03;;;720.80;;
17197;SDS011;8715;51.010;6.812;2023-03-14T07:53:07;750.13;;;715.97;;
17197;SDS011;8715;51.010;6.812;2023-03-14T07:55:32;745.87;;;712.43;;
17197;SDS011;8715;51.010;6.812;2023-03-14T07:57:57;749.37;;;715.57;;
17197;SDS011;8715;51.010;6.812;2023-03-14T08:00:23;749.17;;;715.50;;
17197;SDS011;8715;51.010;6.812;2023-03-14T08:02:48;754.07;;;719.77;;
17197;SDS011;8715;51.010;6.812;2023-03-14T08:05:13;751.53;;;717.30;;
17197;SDS011;8715;51.010;6.812;2023-03-14T08:07:38;751.65;;;717.40;;
17197;SDS011;8715;51.010;6.812;2023-03-14T08:10:04;755.37;;;721.13;;
17197;SDS011;8715;51.010;6.812;2023-03-14T08:12:30;754.47;;;719.85;;
17197;SDS011;8715;51.010;6.812;2023-03-14T08:14:55;757.03;;;722.33;;
17197;SDS011;8715;51.010;6.812;2023-03-14T08:17:20;761.83;;;726.23;;
17197;SDS011;8715;51.010;6.812;2023-03-14T08:19:45;756.87;;;722.23;;
17197;SDS011;8715;51.010;6.812;2023-03-14T08:22:11;753.17;;;718.57;;
17197;SDS011;8715;51.010;6.812;2023-03-14T08:24:36;764.60;;;729.37;;
17197;SDS011;8715;51.010;6.812;2023-03-14T08:27:01;762.23;;;727.10;;
17197;SDS011;8715;51.010;6.812;2023-03-14T08:29:26;758.83;;;723.83;;
17197;SDS011;8715;51.010;6.812;2023-03-14T08:31:51;758.27;;;723.13;;
17197;SDS011;8715;51.010;6.812;2023-03-14T08:34:17;759.07;;;724.37;;
17197;SDS011;8715;51.010;6.812;2023-03-14T08:36:42;757.85;;;722.83;;
17197;SDS011;8715;51.010;6.812;2023-03-14T08:39:07;761.97;;;726.57;;
17197;SDS011;8715;51.010;6.812;2023-03-14T08:41:33;758.22;;;722.72;;
17197;SDS011;8715;51.010;6.812;2023-03-14T08:44:00;762.50;;;727.55;;
17197;SDS011;8715;51.010;6.812;2023-03-14T08:46:25;754.17;;;719.77;;
17197;SDS011;8715;51.010;6.812;2023-03-14T08:48:50;751.57;;;717.50;;
17197;SDS011;8715;51.010;6.812;2023-03-14T08:51:15;751.87;;;717.60;;
17197;SDS011;8715;51.010;6.812;2023-03-14T08:53:41;761.20;;;726.22;;
17197;SDS011;8715;51.010;6.812;2023-03-14T08:56:07;747.90;;;714.07;;
17197;SDS011;8715;51.010;6.812;2023-03-14T08:58:34;760.00;;;724.67;;
17197;SDS011;8715;51.010;6.812;2023-03-14T09:01:02;758.33;;;723.47;;
17197;SDS011;8715;51.010;6.812;2023-03-14T09:03:27;756.28;;;721.10;;
17197;SDS011;8715;51.010;6.812;2023-03-14T09:05:53;751.80;;;717.63;;
17197;SDS011;8715;51.010;6.812;2023-03-14T09:08:18;747.00;;;713.27;;
17197;SDS011;8715;51.010;6.812;2023-03-14T09:10:44;751.63;;;717.47;;
17197;SDS011;8715;51.010;6.812;2023-03-14T09:13:09;755.37;;;720.77;;
17197;SDS011;8715;51.010;6.812;2023-03-14T09:15:34;778.63;;;743.07;;
17197;SDS011;8715;51.010;6.812;2023-03-14T09:17:59;747.10;;;713.10;;
17197;SDS011;8715;51.010;6.812;2023-03-14T09:20:25;742.88;;;709.80;;
17197;SDS011;8715;51.010;6.812;2023-03-14T09:22:50;745.93;;;712.27;;
17197;SDS011;8715;51.010;6.812;2023-03-14T09:25:15;752.37;;;717.90;;
17197;SDS011;8715;51.010;6.812;2023-03-14T09:27:40;749.90;;;716.25;;
17197;SDS011;8715;51.010;6.812;2023-03-14T09:30:06;743.00;;;709.40;;
17197;SDS011;8715;51.010;6.812;2023-03-14T09:32:31;746.10;;;712.80;;
17197;SDS011;8715;51.010;6.812;2023-03-14T09:34:57;737.77;;;704.93;;
17197;SDS011;8715;51.010;6.812;2023-03-14T09:37:22;730.78;;;698.33;;
17197;SDS011;8715;51.010;6.812;2023-03-14T09:39:47;728.63;;;696.93;;
17197;SDS011;8715;51.010;6.812;2023-03-14T09:42:14;739.70;;;706.60;;
17197;SDS011;8715;51.010;6.812;2023-03-14T09:44:42;748.15;;;714.72;;
17197;SDS011;8715;51.010;6.812;2023-03-14T09:47:11;741.22;;;708.42;;
17197;SDS011;8715;51.010;6.812;2023-03-14T09:49:39;768.85;;;734.58;;
17197;SDS011;8715;51.010;6.812;2023-03-14T09:52:06;734.25;;;701.95;;
17197;SDS011;8715;51.010;6.812;2023-03-14T09:54:37;731.80;;;699.80;;
17197;SDS011;8715;51.010;6.812;2023-03-14T09:57:04;726.38;;;694.78;;
17197;SDS011;8715;51.010;6.812;2023-03-14T09:59:30;731.50;;;699.40;;
17197;SDS011;8715;51.010;6.812;2023-03-14T10:01:58;735.05;;;702.50;;
17197;SDS011;8715;51.010;6.812;2023-03-14T10:04:25;722.97;;;691.90;;
17197;SDS011;8715;51.010;6.812;2023-03-14T10:06:50;727.20;;;696.03;;
17197;SDS011;8715;51.010;6.812;2023-03-14T10:09:19;733.28;;;701.22;;
17197;SDS011;8715;51.010;6.812;2023-03-14T10:11:50;720.00;;;688.60;;
17197;SDS011;8715;51.010;6.812;2023-03-14T10:14:15;730.97;;;699.15;;
17197;SDS011;8715;51.010;6.812;2023-03-14T10:16:53;732.72;;;701.28;;
17197;SDS011;8715;51.010;6.812;2023-03-14T10:19:18;727.35;;;695.05;;
17197;SDS011;8715;51.010;6.812;2023-03-14T10:21:44;721.08;;;689.30;;
17197;SDS011;8715;51.010;6.812;2023-03-14T10:24:22;727.70;;;696.35;;
17197;SDS011;8715;51.010;6.812;2023-03-14T10:26:48;714.65;;;684.17;;
17197;SDS011;8715;51.010;6.812;2023-03-14T10:29:14;715.15;;;684.75;;
17197;SDS011;8715;51.010;6.812;2023-03-14T10:34:35;713.47;;;682.75;;
17197;SDS011;8715;51.010;6.812;2023-03-14T10:37:07;712.33;;;681.10;;
17197;SDS011;8715;51.010;6.812;2023-03-14T10:42:09;723.80;;;692.37;;
17197;SDS011;8715;51.010;6.812;2023-03-14T10:44:36;724.70;;;692.50;;
17197;SDS011;8715;51.010;6.812;2023-03-14T10:47:03;722.72;;;691.88;;
17197;SDS011;8715;51.010;6.812;2023-03-14T10:49:30;729.50;;;697.35;;
17197;SDS011;8715;51.010;6.812;2023-03-14T10:51:57;726.92;;;694.58;;
17197;SDS011;8715;51.010;6.812;2023-03-14T10:54:25;718.95;;;687.42;;
17197;SDS011;8715;51.010;6.812;2023-03-14T10:56:58;720.70;;;689.90;;
17197;SDS011;8715;51.010;6.812;2023-03-14T10:59:24;728.72;;;696.95;;
17197;SDS011;8715;51.010;6.812;2023-03-14T11:07:01;729.15;;;697.10;;
17197;SDS011;8715;51.010;6.812;2023-03-14T11:11:59;736.28;;;703.33;;
17197;SDS011;8715;51.010;6.812;2023-03-14T11:16:57;737.87;;;704.93;;
17197;SDS011;8715;51.010;6.812;2023-03-14T11:19:33;728.50;;;696.28;;
17197;SDS011;8715;51.010;6.812;2023-03-14T11:26:54;745.57;;;712.20;;
17197;SDS011;8715;51.010;6.812;2023-03-14T11:31:55;800.63;;;760.33;;
17197;SDS011;8715;51.010;6.812;2023-03-14T11:36:51;759.20;;;723.93;;
17197;SDS011;8715;51.010;6.812;2023-03-14T11:39:18;768.90;;;734.45;;
17197;SDS011;8715;51.010;6.812;2023-03-14T11:41:45;737.10;;;704.97;;
17197;SDS011;8715;51.010;6.812;2023-03-14T11:44:20;750.25;;;716.78;;
17197;SDS011;8715;51.010;6.812;2023-03-14T11:46:59;748.38;;;715.22;;
17197;SDS011;8715;51.010;6.812;2023-03-14T11:49:31;747.00;;;713.55;;
17197;SDS011;8715;51.010;6.812;2023-03-14T11:52:01;753.72;;;719.17;;
17197;SDS011;8715;51.010;6.812;2023-03-14T11:54:44;750.95;;;717.28;;
17197;SDS011;8715;51.010;6.812;2023-03-14T11:57:15;748.08;;;714.67;;
17197;SDS011;8715;51.010;6.812;2023-03-14T11:59:50;749.30;;;715.88;;
17197;SDS011;8715;51.010;6.812;2023-03-14T12:02:21;747.90;;;714.72;;
17197;SDS011;8715;51.010;6.812;2023-03-14T12:07:35;764.67;;;729.55;;
17197;SDS011;8715;51.010;6.812;2023-03-14T12:10:04;750.22;;;716.53;;
17197;SDS011;8715;51.010;6.812;2023-03-14T12:12:29;753.45;;;719.45;;
17197;SDS011;8715;51.010;6.812;2023-03-14T12:14:56;749.22;;;715.67;;
17197;SDS011;8715;51.010;6.812;2023-03-14T12:17:27;741.80;;;708.75;;
17197;SDS011;8715;51.010;6.812;2023-03-14T12:20:04;749.05;;;714.50;;
17197;SDS011;8715;51.010;6.812;2023-03-14T12:22:36;743.97;;;710.65;;
17197;SDS011;8715;51.010;6.812;2023-03-14T12:25:13;741.13;;;708.60;;
17197;SDS011;8715;51.010;6.812;2023-03-14T12:27:43;744.63;;;711.85;;
17197;SDS011;8715;51.010;6.812;2023-03-14T12:32:34;727.07;;;695.07;;
17197;SDS011;8715;51.010;6.812;2023-03-14T12:35:06;739.87;;;707.40;;
17197;SDS011;8715;51.010;6.812;2023-03-14T12:37:41;751.75;;;717.47;;
17197;SDS011;8715;51.010;6.812;2023-03-14T12:40:13;738.22;;;705.55;;
17197;SDS011;8715;51.010;6.812;2023-03-14T12:45:27;753.73;;;720.07;;
17197;SDS011;8715;51.010;6.812;2023-03-14T12:47:53;745.72;;;712.35;;
17197;SDS011;8715;51.010;6.812;2023-03-14T12:50:21;733.90;;;701.33;;
17197;SDS011;8715;51.010;6.812;2023-03-14T12:52:59;734.90;;;702.40;;
17197;SDS011;8715;51.010;6.812;2023-03-14T12:55:33;735.70;;;703.60;;
17197;SDS011;8715;51.010;6.812;2023-03-14T12:58:22;740.38;;;707.40;;
17197;SDS011;8715;51.010;6.812;2023-03-14T13:01:14;731.10;;;698.97;;
17197;SDS011;8715;51.010;6.812;2023-03-14T13:03:42;730.42;;;698.75;;
17197;SDS011;8715;51.010;6.812;2023-03-14T13:06:09;740.05;;;707.05;;
17197;SDS011;8715;51.010;6.812;2023-03-14T13:11:04;731.83;;;699.05;;
17197;SDS011;8715;51.010;6.812;2023-03-14T13:13:30;737.13;;;704.25;;
17197;SDS011;8715;51.010;6.812;2023-03-14T13:15:59;740.70;;;707.80;;
17197;SDS011;8715;51.010;6.812;2023-03-14T13:18:41;750.55;;;716.92;;
17197;SDS011;8715;51.010;6.812;2023-03-14T13:21:17;744.15;;;710.97;;
17197;SDS011;8715;51.010;6.812;2023-03-14T13:23:54;747.80;;;714.05;;
17197;SDS011;8715;51.010;6.812;2023-03-14T13:26:20;720.80;;;689.70;;
17197;SDS011;8715;51.010;6.812;2023-03-14T13:28:45;725.77;;;694.37;;
17197;SDS011;8715;51.010;6.812;2023-03-14T13:31:16;727.13;;;695.60;;
17197;SDS011;8715;51.010;6.812;2023-03-14T13:33:45;709.10;;;678.35;;
17197;SDS011;8715;51.010;6.812;2023-03-14T13:36:11;711.83;;;681.22;;
17197;SDS011;8715;51.010;6.812;2023-03-14T13:38:36;709.37;;;679.20;;
17197;SDS011;8715;51.010;6.812;2023-03-14T13:41:05;697.37;;;667.87;;
17197;SDS011;8715;51.010;6.812;2023-03-14T13:48:48;704.42;;;674.03;;
17197;SDS011;8715;51.010;6.812;2023-03-14T13:51:16;708.33;;;677.92;;
17197;SDS011;8715;51.010;6.812;2023-03-14T13:53:45;703.60;;;673.40;;
17197;SDS011;8715;51.010;6.812;2023-03-14T13:56:11;702.92;;;673.17;;
17197;SDS011;8715;51.010;6.812;2023-03-14T13:58:36;713.03;;;681.75;;
17197;SDS011;8715;51.010;6.812;2023-03-14T14:01:06;713.47;;;682.65;;
17197;SDS011;8715;51.010;6.812;2023-03-14T14:03:37;749.78;;;716.83;;
17197;SDS011;8715;51.010;6.812;2023-03-14T14:06:03;718.63;;;686.97;;
17197;SDS011;8715;51.010;6.812;2023-03-14T14:08:28;713.65;;;681.78;;
17197;SDS011;8715;51.010;6.812;2023-03-14T14:10:55;722.23;;;690.17;;
17197;SDS011;8715;51.010;6.812;2023-03-14T14:13:22;712.08;;;681.03;;
17197;SDS011;8715;51.010;6.812;2023-03-14T14:15:48;729.50;;;697.17;;
17197;SDS011;8715;51.010;6.812;2023-03-14T14:18:16;713.85;;;680.88;;
17197;SDS011;8715;51.010;6.812;2023-03-14T14:20:44;724.17;;;691.72;;
17197;SDS011;8715;51.010;6.812;2023-03-14T14:23:10;723.50;;;691.28;;
17197;SDS011;8715;51.010;6.812;2023-03-14T14:25:36;714.40;;;682.83;;
17197;SDS011;8715;51.010;6.812;2023-03-14T14:28:14;723.85;;;691.65;;
17197;SDS011;8715;51.010;6.812;2023-03-14T14:30:40;719.53;;;688.28;;
17197;SDS011;8715;51.010;6.812;2023-03-14T14:33:18;728.60;;;696.50;;
17197;SDS011;8715;51.010;6.812;2023-03-14T14:35:49;733.65;;;700.95;;
17197;SDS011;8715;51.010;6.812;2023-03-14T14:38:16;724.65;;;693.17;;
17197;SDS011;8715;51.010;6.812;2023-03-14T14:40:45;725.00;;;693.45;;
17197;SDS011;8715;51.010;6.812;2023-03-14T14:43:11;735.65;;;702.97;;
17197;SDS011;8715;51.010;6.812;2023-03-14T14:45:39;733.40;;;701.40;;
17197;SDS011;8715;51.010;6.812;2023-03-14T14:48:09;737.10;;;702.97;;
17197;SDS011;8715;51.010;6.812;2023-03-14T14:50:39;735.28;;;702.47;;
17197;SDS011;8715;51.010;6.812;2023-03-14T14:55:52;732.85;;;700.50;;
17197;SDS011;8715;51.010;6.812;2023-03-14T14:58:18;735.30;;;702.58;;
17197;SDS011;8715;51.010;6.812;2023-03-14T15:00:49;734.17;;;701.53;;
17197;SDS011;8715;51.010;6.812;2023-03-14T15:03:16;736.38;;;703.75;;